createdAt,value
2018-12-22T00:04:53.981Z,70.80
2018-12-22T00:09:57.274Z,69.00
2018-12-22T00:15:00.571Z,68.00
2018-12-22T00:20:04.001Z,69.20
2018-12-22T00:25:07.305Z,67.00
2018-12-22T00:30:10.614Z,65.80
2018-12-22T00:35:13.908Z,66.67
2018-12-22T00:40:17.217Z,65.67
2018-12-22T00:45:20.533Z,63.50
2018-12-22T00:50:23.835Z,63.00
2018-12-22T00:55:27.145Z,63.50
2018-12-22T01:00:30.439Z,64.25
2018-12-22T01:05:33.766Z,60.50
2018-12-22T01:10:37.053Z,62.25
2018-12-22T01:15:40.360Z,60.50
2018-12-22T01:20:43.677Z,60.00
2018-12-22T01:25:46.966Z,62.50
2018-12-22T01:30:50.265Z,58.25
2018-12-22T01:35:53.560Z,56.75
2018-12-22T01:40:56.852Z,58.00
2018-12-22T01:46:00.221Z,59.00
2018-12-22T01:51:03.513Z,58.75
2018-12-22T01:56:06.809Z,59.00
2018-12-22T02:01:10.102Z,55.00
2018-12-22T02:06:13.403Z,56.60
2018-12-22T02:11:16.701Z,57.50
2018-12-22T02:16:20.012Z,54.50
2018-12-22T02:21:23.292Z,50.50
2018-12-22T02:26:26.596Z,52.40
2018-12-22T02:31:29.905Z,53.00
2018-12-22T02:36:33.219Z,54.00
2018-12-22T02:41:36.532Z,52.00
2018-12-22T02:46:39.841Z,48.20
2018-12-22T02:51:43.137Z,49.75
2018-12-22T02:56:46.445Z,48.80
2018-12-22T03:01:49.745Z,48.00
2018-12-22T03:06:53.046Z,51.20
2018-12-22T03:11:56.354Z,43.50
2018-12-22T03:16:59.660Z,42.40
2018-12-22T03:22:02.958Z,45.80
2018-12-22T03:27:06.245Z,41.50
2018-12-22T03:32:09.570Z,43.00
2018-12-22T03:37:12.965Z,40.20
2018-12-22T03:42:16.257Z,41.00
2018-12-22T03:47:19.539Z,41.20
2018-12-22T03:52:22.821Z,41.40
2018-12-22T03:57:26.101Z,38.75
2018-12-22T04:02:29.384Z,40.00
2018-12-22T04:07:32.662Z,38.60
2018-12-22T04:12:35.941Z,39.50
2018-12-22T04:17:39.349Z,41.00
2018-12-22T04:22:42.630Z,40.40
2018-12-22T04:27:45.916Z,39.25
2018-12-22T04:32:49.219Z,36.25
2018-12-22T04:37:52.508Z,39.75
2018-12-22T04:42:55.800Z,38.80
2018-12-22T04:47:59.093Z,40.00
2018-12-22T04:53:02.377Z,38.25
2018-12-22T04:58:05.660Z,39.00
2018-12-22T05:03:08.937Z,35.40
2018-12-22T05:08:12.237Z,38.25
2018-12-22T05:13:15.513Z,41.50
2018-12-22T05:18:18.808Z,36.00
2018-12-22T05:23:22.085Z,36.20
2018-12-22T05:28:25.366Z,33.25
2018-12-22T05:33:28.649Z,34.50
2018-12-22T05:38:31.924Z,34.25
2018-12-22T05:43:35.191Z,33.25
2018-12-22T05:48:38.477Z,33.50
2018-12-22T05:53:41.761Z,34.00
2018-12-22T05:58:45.036Z,35.00
2018-12-22T06:03:48.320Z,33.25
2018-12-22T06:08:51.601Z,32.00
2018-12-22T06:13:54.893Z,36.00
2018-12-22T06:18:58.161Z,34.00
2018-12-22T06:24:01.446Z,33.00
2018-12-22T06:29:04.730Z,29.80
2018-12-22T06:34:08.005Z,33.75
2018-12-22T06:39:11.282Z,33.50
2018-12-22T06:44:14.572Z,33.00
2018-12-22T06:49:17.853Z,33.80
2018-12-22T06:54:21.664Z,28.00
2018-12-22T06:59:25.094Z,32.75
2018-12-22T07:04:28.387Z,30.25
2018-12-22T07:09:31.685Z,33.60
2018-12-22T07:14:35.013Z,32.40
2018-12-22T07:19:38.337Z,32.50
2018-12-22T07:24:41.781Z,30.40
2018-12-22T07:29:45.079Z,29.75
2018-12-22T07:34:48.374Z,29.25
2018-12-22T07:39:51.751Z,29.60
2018-12-22T07:44:55.174Z,32.25
2018-12-22T07:49:58.579Z,28.00
2018-12-22T07:55:01.894Z,30.20
2018-12-22T08:00:06.434Z,27.00
2018-12-22T08:05:09.724Z,11.00
2018-12-22T08:10:13.005Z,6.00
2018-12-22T08:15:16.456Z,3.00
2018-12-22T08:20:19.760Z,8.20
2018-12-22T08:25:23.064Z,6.75
2018-12-22T08:30:26.338Z,6.25
2018-12-22T08:35:29.800Z,8.00
2018-12-22T08:40:33.069Z,9.00
2018-12-22T08:45:36.369Z,13.25
2018-12-22T08:50:39.640Z,10.00
2018-12-22T08:55:43.076Z,9.75
2018-12-22T09:00:52.121Z,33.75
2018-12-22T09:05:51.656Z,83.00
2018-12-22T09:10:54.947Z,167.25
2018-12-22T09:15:58.253Z,206.50
2018-12-22T09:21:01.537Z,217.50
2018-12-22T09:26:04.841Z,218.00
2018-12-22T09:31:08.133Z,208.20
2018-12-22T09:36:11.421Z,205.25
2018-12-22T09:41:14.713Z,205.00
2018-12-22T09:46:18.037Z,204.75
2018-12-22T09:51:22.252Z,200.75
2018-12-22T09:56:25.549Z,201.75
2018-12-22T10:01:29.086Z,203.00
2018-12-22T10:06:32.455Z,199.60
2018-12-22T10:11:35.813Z,192.20
2018-12-22T10:16:39.124Z,186.60
2018-12-22T10:21:42.657Z,189.00
2018-12-22T10:26:45.958Z,181.75
2018-12-22T10:31:49.260Z,183.25
2018-12-22T10:36:52.557Z,176.75
2018-12-22T10:41:55.932Z,178.80
2018-12-22T10:46:59.303Z,176.50
2018-12-22T10:52:02.596Z,173.50
2018-12-22T10:57:06.027Z,170.00
2018-12-22T11:02:09.390Z,165.00
2018-12-22T11:07:12.755Z,170.00
2018-12-22T11:12:16.116Z,167.50
2018-12-22T11:17:19.449Z,163.75
2018-12-22T11:22:22.768Z,163.00
2018-12-22T11:27:26.127Z,160.25
2018-12-22T11:32:29.501Z,162.50
2018-12-22T11:37:32.809Z,156.50
2018-12-22T11:42:36.100Z,157.00
2018-12-22T11:48:09.506Z,155.25
2018-12-22T11:53:12.913Z,151.00
2018-12-22T11:58:16.996Z,149.00
2018-12-22T12:03:20.548Z,148.75
2018-12-22T12:08:23.938Z,149.25
2018-12-22T12:13:27.272Z,143.00
2018-12-22T12:18:45.360Z,145.00
2018-12-22T12:23:48.716Z,141.50
2018-12-22T12:28:52.065Z,137.50
2018-12-22T12:33:55.408Z,138.50
2018-12-22T12:38:58.953Z,131.00
2018-12-22T12:44:02.319Z,129.75
2018-12-22T12:49:05.670Z,133.00
2018-12-22T12:54:09.017Z,131.75
2018-12-22T12:59:12.374Z,132.00
2018-12-22T13:04:15.721Z,126.50
2018-12-22T13:09:19.060Z,123.00
2018-12-22T13:14:24.105Z,125.75
2018-12-22T13:19:27.470Z,125.25
2018-12-22T13:24:30.885Z,121.00
2018-12-22T13:29:34.185Z,125.75
2018-12-22T13:34:37.489Z,116.00
2018-12-22T13:39:40.813Z,120.20
2018-12-22T13:44:44.211Z,119.25
2018-12-22T13:49:47.624Z,116.50
2018-12-22T13:54:51.068Z,114.00
2018-12-22T13:59:54.363Z,113.00
2018-12-22T14:04:57.685Z,108.25
2018-12-22T14:10:01.026Z,111.25
2018-12-22T14:15:05.581Z,115.75
2018-12-22T14:20:12.273Z,111.00
2018-12-22T14:25:21.230Z,110.00
2018-12-22T14:30:24.545Z,108.25
2018-12-22T14:35:44.657Z,109.50
2018-12-22T14:40:48.807Z,105.25
2018-12-22T14:45:52.106Z,107.50
2018-12-22T14:50:55.485Z,103.20
2018-12-22T14:55:58.851Z,104.00
2018-12-22T15:01:02.196Z,104.00
2018-12-22T15:06:05.554Z,104.00
2018-12-22T15:11:08.894Z,102.50
2018-12-22T15:16:12.221Z,106.00
2018-12-22T15:21:15.681Z,105.75
2018-12-22T15:26:19.026Z,100.25
2018-12-22T15:31:22.360Z,99.25
2018-12-22T15:36:25.722Z,103.25
2018-12-22T15:41:29.033Z,99.75
2018-12-22T15:46:32.359Z,103.25
2018-12-22T15:51:35.698Z,102.50
2018-12-22T15:56:39.021Z,99.25
2018-12-22T16:01:42.330Z,98.00
2018-12-22T16:06:45.629Z,95.40
2018-12-22T16:11:48.957Z,94.20
2018-12-22T16:16:52.258Z,91.25
2018-12-22T16:22:01.955Z,91.00
2018-12-22T16:27:05.276Z,90.50
2018-12-22T16:32:09.071Z,91.00
2018-12-22T16:37:12.429Z,50.50
2018-12-22T16:42:15.747Z,72.00
2018-12-22T16:47:19.076Z,76.25
2018-12-22T16:52:22.377Z,75.50
2018-12-22T16:57:25.672Z,74.50
2018-12-22T17:02:52.913Z,69.20
2018-12-22T17:07:56.241Z,64.25
2018-12-22T17:12:59.575Z,63.50
2018-12-22T17:18:02.869Z,61.00
2018-12-22T17:23:25.072Z,65.50
2018-12-22T17:28:28.702Z,54.50
2018-12-22T17:33:32.261Z,60.75
2018-12-22T17:38:35.594Z,61.00
2018-12-22T17:43:40.493Z,53.00
2018-12-22T17:48:43.804Z,52.80
2018-12-22T17:53:47.130Z,50.50
2018-12-22T17:58:50.460Z,54.00
2018-12-22T18:03:53.864Z,47.00
2018-12-22T18:08:57.198Z,42.50
2018-12-22T18:14:00.505Z,42.00
2018-12-22T18:19:04.416Z,44.40
2018-12-22T18:24:07.750Z,41.00
2018-12-22T18:29:11.065Z,40.00
2018-12-22T18:34:14.406Z,35.50
2018-12-22T18:39:17.756Z,35.40
2018-12-22T18:44:21.085Z,35.80
2018-12-22T18:49:24.394Z,34.50
2018-12-22T18:54:27.743Z,31.25
2018-12-22T18:59:31.047Z,33.40
2018-12-22T19:04:34.361Z,29.00
2018-12-22T19:09:39.853Z,31.00
2018-12-22T19:14:54.436Z,26.25
2018-12-22T19:19:57.831Z,26.25
2018-12-22T19:25:01.207Z,26.60
2018-12-22T19:30:04.798Z,28.60
2018-12-22T19:35:08.113Z,24.60
2018-12-22T19:40:11.420Z,22.00
2018-12-22T19:45:14.735Z,23.60
2018-12-22T19:50:18.037Z,23.25
2018-12-22T19:55:21.355Z,22.20
2018-12-22T20:00:24.676Z,20.00
2018-12-22T20:05:27.980Z,22.25
2018-12-22T20:10:31.309Z,21.00
2018-12-22T20:15:34.704Z,21.00
2018-12-22T20:20:38.020Z,22.00
2018-12-22T20:25:42.622Z,18.80
2018-12-22T20:30:46.201Z,20.80
2018-12-22T20:35:49.520Z,19.20
2018-12-22T20:40:52.813Z,19.20
2018-12-22T20:45:56.206Z,20.00
2018-12-22T20:50:59.582Z,19.00
2018-12-22T20:56:02.902Z,17.25
2018-12-22T21:01:06.288Z,16.50
2018-12-22T21:06:18.426Z,18.00
2018-12-22T21:11:21.776Z,16.00
2018-12-22T21:16:25.110Z,19.60
2018-12-22T21:21:28.413Z,16.50
2018-12-22T21:26:31.740Z,17.00
2018-12-22T21:31:35.098Z,16.20
2018-12-22T21:36:38.436Z,17.50
2018-12-22T21:41:41.732Z,16.00
2018-12-22T21:46:45.094Z,16.50
2018-12-22T21:51:48.448Z,17.25
2018-12-22T21:56:51.766Z,15.75
2018-12-22T22:01:55.097Z,18.50
2018-12-22T22:06:58.446Z,16.50
2018-12-22T22:12:01.791Z,16.00
2018-12-22T22:17:05.263Z,15.25
2018-12-22T22:22:08.556Z,16.00
2018-12-22T22:27:12.021Z,14.80
2018-12-22T22:32:15.382Z,14.00
2018-12-22T22:37:18.695Z,15.00
2018-12-22T22:42:22.062Z,13.50
2018-12-22T22:47:25.483Z,14.00
2018-12-22T22:52:28.824Z,15.00
2018-12-22T22:57:32.194Z,13.00
2018-12-22T23:02:35.479Z,13.75
2018-12-22T23:07:38.765Z,14.25
2018-12-22T23:12:42.097Z,14.00
2018-12-22T23:17:45.410Z,14.50
2018-12-22T23:22:48.705Z,12.40
2018-12-22T23:27:52.014Z,14.00
2018-12-22T23:32:55.301Z,12.50
2018-12-22T23:37:58.629Z,13.40
2018-12-22T23:43:01.905Z,10.50
2018-12-22T23:48:05.226Z,14.00
2018-12-22T23:53:08.537Z,13.00
2018-12-22T23:58:11.934Z,12.25
